createdAt,value
2023-04-30T00:00:22.510Z,95.17
2023-04-30T00:01:22.532Z,95.57
2023-04-30T00:02:22.693Z,95.48
2023-04-30T00:03:22.528Z,95.83
2023-04-30T00:04:22.562Z,95.52
2023-04-30T00:05:22.459Z,95.62
2023-04-30T00:06:22.525Z,95.31
2023-04-30T00:07:22.437Z,95.42
2023-04-30T00:08:22.431Z,95.21
2023-04-30T00:09:22.427Z,95.73
2023-04-30T00:10:22.402Z,95.62
2023-04-30T00:11:22.424Z,95.42
2023-04-30T00:12:22.396Z,95.87
2023-04-30T00:13:22.367Z,95.98
2023-04-30T00:14:22.358Z,95.67
2023-04-30T00:15:22.352Z,95.71
2023-04-30T00:16:22.403Z,96.02
2023-04-30T00:17:22.425Z,95.81
2023-04-30T00:18:22.364Z,95.81
2023-04-30T00:19:22.300Z,96.23
2023-04-30T00:20:22.290Z,96.44
2023-04-30T00:21:22.297Z,96.79
2023-04-30T00:22:22.266Z,96.33
2023-04-30T00:23:22.253Z,96.48
2023-04-30T00:24:22.264Z,96.27
2023-04-30T00:25:22.236Z,96.37
2023-04-30T00:26:22.244Z,96.37
2023-04-30T00:27:22.235Z,96.79
2023-04-30T00:28:22.214Z,96.89
2023-04-30T00:29:22.204Z,96.89
2023-04-30T00:30:22.182Z,97.00
2023-04-30T00:31:22.227Z,97.00
2023-04-30T00:32:22.407Z,96.69
2023-04-30T00:33:22.145Z,96.17
2023-04-30T00:34:22.147Z,97.04
2023-04-30T00:35:22.120Z,96.69
2023-04-30T00:36:22.140Z,97.25
2023-04-30T00:37:22.099Z,96.83
2023-04-30T00:38:22.101Z,96.94
2023-04-30T00:39:22.094Z,97.14
2023-04-30T00:40:22.080Z,97.25
2023-04-30T00:41:22.073Z,96.94
2023-04-30T00:42:22.046Z,97.14
2023-04-30T00:43:22.041Z,96.73
2023-04-30T00:44:22.030Z,97.45
2023-04-30T00:45:22.021Z,97.45
2023-04-30T00:46:22.139Z,97.04
2023-04-30T00:47:22.084Z,97.14
2023-04-30T00:48:21.991Z,97.87
2023-04-30T00:49:21.970Z,97.97
2023-04-30T00:50:21.974Z,97.77
2023-04-30T00:51:21.967Z,97.66
2023-04-30T00:52:21.923Z,97.87
2023-04-30T00:53:21.926Z,97.66
2023-04-30T00:54:21.904Z,97.56
2023-04-30T00:55:21.904Z,97.35
2023-04-30T00:56:21.899Z,97.60
2023-04-30T00:57:21.885Z,97.50
2023-04-30T00:58:21.863Z,97.60
2023-04-30T00:59:21.857Z,97.91
2023-04-30T01:00:21.846Z,98.43
2023-04-30T01:01:21.868Z,98.12
2023-04-30T01:02:21.902Z,98.43
2023-04-30T01:03:21.913Z,98.64
2023-04-30T01:04:21.800Z,97.91
2023-04-30T01:05:21.777Z,98.12
2023-04-30T01:06:21.843Z,98.12
2023-04-30T01:07:21.782Z,98.12
2023-04-30T01:08:21.758Z,98.27
2023-04-30T01:09:21.755Z,98.27
2023-04-30T01:10:21.861Z,98.17
2023-04-30T01:11:21.723Z,98.07
2023-04-30T01:12:21.728Z,98.38
2023-04-30T01:13:21.709Z,98.27
2023-04-30T01:14:21.688Z,97.86
2023-04-30T01:15:21.666Z,97.86
2023-04-30T01:16:21.694Z,98.17
2023-04-30T01:17:21.650Z,98.17
2023-04-30T01:18:21.700Z,98.38
2023-04-30T01:19:21.624Z,98.17
2023-04-30T01:20:21.608Z,98.17
2023-04-30T01:21:21.636Z,97.96
2023-04-30T01:22:21.616Z,98.58
2023-04-30T01:23:21.593Z,98.38
2023-04-30T01:24:21.564Z,98.69
2023-04-30T01:25:21.583Z,98.48
2023-04-30T01:26:21.560Z,98.48
2023-04-30T01:27:21.559Z,98.58
2023-04-30T01:28:21.517Z,98.94
2023-04-30T01:29:21.515Z,99.15
2023-04-30T01:30:21.499Z,98.94
2023-04-30T01:31:21.540Z,99.00
2023-04-30T01:32:21.477Z,99.10
2023-04-30T01:33:21.480Z,99.21
2023-04-30T01:34:21.462Z,99.25
2023-04-30T01:35:21.443Z,99.10
2023-04-30T01:36:21.477Z,99.10
2023-04-30T01:37:21.446Z,99.10
2023-04-30T01:38:21.432Z,99.21
2023-04-30T01:39:21.405Z,99.00
2023-04-30T01:40:21.387Z,99.35
2023-04-30T01:41:21.397Z,99.25
2023-04-30T01:42:21.376Z,99.15
2023-04-30T01:43:21.355Z,99.25
2023-04-30T01:44:21.355Z,99.25
2023-04-30T01:45:21.467Z,99.04
2023-04-30T01:46:21.435Z,98.94
2023-04-30T01:47:21.364Z,99.15
2023-04-30T01:48:21.317Z,98.83
2023-04-30T01:49:21.282Z,99.35
2023-04-30T01:50:21.375Z,99.25
2023-04-30T01:51:21.280Z,99.15
2023-04-30T01:52:21.259Z,99.61
2023-04-30T01:53:21.240Z,99.71
2023-04-30T01:54:21.265Z,99.61
2023-04-30T01:55:21.231Z,99.71
2023-04-30T01:56:21.224Z,99.66
2023-04-30T01:57:21.205Z,99.61
2023-04-30T01:58:21.197Z,99.71
2023-04-30T01:59:21.193Z,99.71
2023-04-30T02:00:21.179Z,99.61
2023-04-30T02:01:21.191Z,99.71
2023-04-30T02:02:21.166Z,99.51
2023-04-30T02:03:21.195Z,99.71
2023-04-30T02:04:21.141Z,99.82
2023-04-30T02:05:21.134Z,99.82
2023-04-30T02:06:21.164Z,99.30
2023-04-30T02:07:21.108Z,99.40
2023-04-30T02:08:21.090Z,99.40
2023-04-30T02:09:21.067Z,99.40
2023-04-30T02:10:21.079Z,99.40
2023-04-30T02:11:21.094Z,99.30
2023-04-30T02:12:21.028Z,99.51
2023-04-30T02:13:21.025Z,99.55
2023-04-30T02:14:21.008Z,99.61
2023-04-30T02:15:21.017Z,99.55
2023-04-30T02:16:21.041Z,99.76
2023-04-30T02:17:20.986Z,99.65
2023-04-30T02:18:21.035Z,99.76
2023-04-30T02:19:20.956Z,99.86
2023-04-30T02:20:20.935Z,99.76
2023-04-30T02:21:20.917Z,99.65
2023-04-30T02:22:20.930Z,99.44
2023-04-30T02:23:20.920Z,99.76
2023-04-30T02:24:20.895Z,99.34
2023-04-30T02:25:20.888Z,99.34
2023-04-30T02:26:20.892Z,99.44
2023-04-30T02:27:20.880Z,99.65
2023-04-30T02:28:20.852Z,99.86
2023-04-30T02:29:20.862Z,99.96
2023-04-30T02:30:20.850Z,99.99
2023-04-30T02:31:20.838Z,99.96
2023-04-30T02:32:20.833Z,99.99
2023-04-30T02:33:20.800Z,99.99
2023-04-30T02:34:20.780Z,99.99
2023-04-30T02:35:20.780Z,99.91
2023-04-30T02:36:20.759Z,99.91
2023-04-30T02:37:20.780Z,99.99
2023-04-30T02:38:20.761Z,99.91
2023-04-30T02:39:20.769Z,99.99
2023-04-30T02:40:20.733Z,99.91
2023-04-30T02:41:20.698Z,99.99
2023-04-30T02:42:20.723Z,99.99
2023-04-30T02:43:20.677Z,99.91
2023-04-30T02:44:20.669Z,99.99
2023-04-30T02:45:20.662Z,99.99
2023-04-30T02:46:20.761Z,99.99
2023-04-30T02:47:20.654Z,99.91
2023-04-30T02:48:20.632Z,99.91
2023-04-30T02:49:20.605Z,99.99
2023-04-30T02:50:20.607Z,99.95
2023-04-30T02:51:20.589Z,99.91
2023-04-30T02:52:20.598Z,99.95
2023-04-30T02:53:20.573Z,99.99
2023-04-30T02:54:20.559Z,99.99
2023-04-30T02:55:20.564Z,99.99
2023-04-30T02:56:20.533Z,99.74
2023-04-30T02:57:20.526Z,99.85
2023-04-30T02:58:20.540Z,99.99
2023-04-30T02:59:20.500Z,99.85
2023-04-30T03:00:20.492Z,99.99
2023-04-30T03:01:20.498Z,99.99
2023-04-30T03:02:20.514Z,99.90
2023-04-30T03:03:20.640Z,99.90
2023-04-30T03:04:20.440Z,99.90
2023-04-30T03:05:20.453Z,99.90
2023-04-30T03:06:20.453Z,99.90
2023-04-30T03:07:20.425Z,99.99
2023-04-30T03:08:20.404Z,99.90
2023-04-30T03:09:20.387Z,99.79
2023-04-30T03:10:20.372Z,99.99
2023-04-30T03:11:20.396Z,99.85
2023-04-30T03:12:20.390Z,99.99
2023-04-30T03:13:20.339Z,99.95
2023-04-30T03:14:20.353Z,99.99
2023-04-30T03:15:20.317Z,99.99
2023-04-30T03:16:20.358Z,99.99
2023-04-30T03:17:20.341Z,99.99
2023-04-30T03:18:20.296Z,99.99
2023-04-30T03:19:20.273Z,99.99
2023-04-30T03:20:20.264Z,99.99
2023-04-30T03:21:20.257Z,99.99
2023-04-30T03:22:20.265Z,99.99
2023-04-30T03:23:20.235Z,99.99
2023-04-30T03:24:20.229Z,99.99
2023-04-30T03:25:20.223Z,99.99
2023-04-30T03:26:20.199Z,99.99
2023-04-30T03:27:20.205Z,99.99
2023-04-30T03:28:20.176Z,99.99
2023-04-30T03:29:20.177Z,99.99
2023-04-30T03:30:20.195Z,99.99
2023-04-30T03:31:20.170Z,99.99
2023-04-30T03:32:20.163Z,99.99
2023-04-30T03:33:20.277Z,99.99
2023-04-30T03:34:20.120Z,99.99
2023-04-30T03:35:20.092Z,99.99
2023-04-30T03:36:20.093Z,99.99
2023-04-30T03:37:20.110Z,99.99
2023-04-30T03:38:20.069Z,99.99
2023-04-30T03:39:20.065Z,99.99
2023-04-30T03:40:20.036Z,99.99
2023-04-30T03:41:20.057Z,99.99
2023-04-30T03:42:20.040Z,99.99
2023-04-30T03:43:20.031Z,99.99
2023-04-30T03:44:20.020Z,99.99
2023-04-30T03:45:19.993Z,99.99
2023-04-30T03:46:20.020Z,99.99
2023-04-30T03:47:19.979Z,99.99
2023-04-30T03:48:19.996Z,99.99
2023-04-30T03:49:19.936Z,99.99
2023-04-30T03:50:19.944Z,99.99
2023-04-30T03:51:19.921Z,99.99
2023-04-30T03:52:19.915Z,99.99
2023-04-30T03:53:19.922Z,99.99
2023-04-30T03:54:19.904Z,99.99
2023-04-30T03:55:19.874Z,99.99
2023-04-30T03:56:19.862Z,99.99
2023-04-30T03:57:19.852Z,99.99
2023-04-30T03:58:19.871Z,99.99
2023-04-30T03:59:19.833Z,99.99
2023-04-30T04:00:19.819Z,99.99
2023-04-30T04:01:19.815Z,99.99
2023-04-30T04:02:19.843Z,99.99
2023-04-30T04:03:19.883Z,99.99
2023-04-30T04:04:19.813Z,99.99
2023-04-30T04:05:19.774Z,99.99
2023-04-30T04:06:19.806Z,99.99
2023-04-30T04:07:19.779Z,99.99
2023-04-30T04:08:20.219Z,99.99
2023-04-30T04:09:19.722Z,99.99
2023-04-30T04:10:19.716Z,99.99
2023-04-30T04:11:19.711Z,99.99
2023-04-30T04:12:19.717Z,99.99
2023-04-30T04:13:19.708Z,99.99
2023-04-30T04:14:19.672Z,99.99
2023-04-30T04:15:19.657Z,99.99
2023-04-30T04:16:19.694Z,99.99
2023-04-30T04:17:19.649Z,99.99
2023-04-30T04:18:19.766Z,99.99
2023-04-30T04:19:19.621Z,99.99
2023-04-30T04:20:19.600Z,99.99
2023-04-30T04:21:19.578Z,99.99
2023-04-30T04:22:19.575Z,99.99
2023-04-30T04:23:19.593Z,99.99
2023-04-30T04:24:19.558Z,99.99
2023-04-30T04:25:19.546Z,99.99
2023-04-30T04:26:19.537Z,99.99
2023-04-30T04:27:19.529Z,99.99
2023-04-30T04:28:19.530Z,99.99
2023-04-30T04:29:19.500Z,99.99
2023-04-30T04:30:19.480Z,99.99
2023-04-30T04:31:19.486Z,99.99
2023-04-30T04:32:19.469Z,99.99
2023-04-30T04:33:19.483Z,99.99
2023-04-30T04:34:19.484Z,99.99
2023-04-30T04:35:19.458Z,99.99
2023-04-30T04:36:19.424Z,99.99
2023-04-30T04:37:19.408Z,99.99
2023-04-30T04:38:19.949Z,99.99
2023-04-30T04:39:19.403Z,99.99
2023-04-30T04:40:19.386Z,99.99
2023-04-30T04:41:19.359Z,99.99
2023-04-30T04:42:19.354Z,99.99
2023-04-30T04:43:19.382Z,99.99
2023-04-30T04:44:19.331Z,99.99
2023-04-30T04:45:19.318Z,99.99
2023-04-30T04:46:19.343Z,99.99
2023-04-30T04:47:19.290Z,99.99
2023-04-30T04:48:19.284Z,99.99
2023-04-30T04:49:19.293Z,99.99
2023-04-30T04:50:19.271Z,99.99
2023-04-30T04:51:19.258Z,99.99
2023-04-30T04:52:19.234Z,99.99
2023-04-30T04:53:19.237Z,99.99
2023-04-30T04:54:19.219Z,99.99
2023-04-30T04:55:19.200Z,99.99
2023-04-30T04:56:19.205Z,99.99
2023-04-30T04:57:19.214Z,99.99
2023-04-30T04:58:19.183Z,99.99
2023-04-30T04:59:19.167Z,99.99
2023-04-30T05:00:19.146Z,99.99
2023-04-30T05:01:19.183Z,99.99
2023-04-30T05:02:19.119Z,99.99
2023-04-30T05:03:19.307Z,99.99
2023-04-30T05:04:19.115Z,99.99
2023-04-30T05:05:19.096Z,99.99
2023-04-30T05:06:19.125Z,99.99
2023-04-30T05:07:19.079Z,99.99
2023-04-30T05:08:19.066Z,99.99
2023-04-30T05:09:19.063Z,99.99
2023-04-30T05:10:19.035Z,99.99
2023-04-30T05:11:19.038Z,99.99
2023-04-30T05:12:19.025Z,99.99
2023-04-30T05:13:19.027Z,99.99
2023-04-30T05:14:18.990Z,99.99
2023-04-30T05:15:19.003Z,99.99
2023-04-30T05:16:19.044Z,99.99
2023-04-30T05:17:18.953Z,99.99
2023-04-30T05:18:18.981Z,99.99
2023-04-30T05:19:18.938Z,99.99
2023-04-30T05:20:18.916Z,99.99
2023-04-30T05:21:18.917Z,99.99
2023-04-30T05:22:18.928Z,99.99
2023-04-30T05:23:18.899Z,99.99
2023-04-30T05:24:18.903Z,99.99
2023-04-30T05:25:18.875Z,99.99
2023-04-30T05:26:18.847Z,99.99
2023-04-30T05:27:18.839Z,99.99
2023-04-30T05:28:18.830Z,99.78
2023-04-30T05:29:18.843Z,99.99
2023-04-30T05:30:18.818Z,99.99
2023-04-30T05:31:20.797Z,99.52
2023-04-30T05:32:18.784Z,99.52
2023-04-30T05:33:18.777Z,99.84
2023-04-30T05:34:18.788Z,99.73
2023-04-30T05:35:18.754Z,99.63
2023-04-30T05:36:18.740Z,99.84
2023-04-30T05:37:18.728Z,99.11
2023-04-30T05:38:18.739Z,99.01
2023-04-30T05:39:18.747Z,99.63
2023-04-30T05:40:18.722Z,98.96
2023-04-30T05:41:18.685Z,99.11
2023-04-30T05:42:18.695Z,98.96
2023-04-30T05:43:18.695Z,99.17
2023-04-30T05:44:18.659Z,99.13
2023-04-30T05:45:18.655Z,99.02
2023-04-30T05:46:18.648Z,99.43
2023-04-30T05:47:18.616Z,99.29
2023-04-30T05:48:18.632Z,98.97
2023-04-30T05:49:18.610Z,99.29
2023-04-30T05:50:18.589Z,99.39
2023-04-30T05:51:18.580Z,99.39
2023-04-30T05:52:18.557Z,99.24
2023-04-30T05:53:18.563Z,99.04
2023-04-30T05:54:18.568Z,98.74
2023-04-30T05:55:18.535Z,98.65
2023-04-30T05:56:18.514Z,97.63
2023-04-30T05:57:18.519Z,97.11
2023-04-30T05:58:18.505Z,96.41
2023-04-30T05:59:18.520Z,95.64
2023-04-30T06:00:18.475Z,94.09
2023-04-30T06:01:18.466Z,92.71
2023-04-30T06:02:18.464Z,93.18
2023-04-30T06:03:18.466Z,90.98
2023-04-30T06:04:18.460Z,90.26
2023-04-30T06:05:18.450Z,89.64
2023-04-30T06:06:18.435Z,88.78
2023-04-30T06:07:18.400Z,88.06
2023-04-30T06:08:18.394Z,87.85
2023-04-30T06:09:18.394Z,86.72
2023-04-30T06:10:18.386Z,86.50
2023-04-30T06:11:18.362Z,86.74
2023-04-30T06:12:18.378Z,87.77
2023-04-30T06:13:18.342Z,87.87
2023-04-30T06:14:18.348Z,88.08
2023-04-30T06:15:18.304Z,88.29
2023-04-30T06:16:18.338Z,88.18
2023-04-30T06:17:18.284Z,88.29
2023-04-30T06:18:18.274Z,88.96
2023-04-30T06:19:18.290Z,88.86
2023-04-30T06:20:18.257Z,87.98
2023-04-30T06:21:18.246Z,87.57
2023-04-30T06:22:18.253Z,87.94
2023-04-30T06:23:18.233Z,87.12
2023-04-30T06:24:18.223Z,86.43
2023-04-30T06:25:18.197Z,86.74
2023-04-30T06:26:18.193Z,87.94
2023-04-30T06:27:18.179Z,88.24
2023-04-30T06:28:18.165Z,88.14
2023-04-30T06:29:18.179Z,87.07
2023-04-30T06:30:18.155Z,86.66
2023-04-30T06:31:18.161Z,86.56
2023-04-30T06:32:18.115Z,86.66
2023-04-30T06:33:18.113Z,86.97
2023-04-30T06:34:18.299Z,86.52
2023-04-30T06:35:18.081Z,86.93
2023-04-30T06:36:18.068Z,86.89
2023-04-30T06:37:18.056Z,86.58
2023-04-30T06:38:18.047Z,86.89
2023-04-30T06:39:18.046Z,86.58
2023-04-30T06:40:18.034Z,85.86
2023-04-30T06:41:18.023Z,85.66
2023-04-30T06:42:18.028Z,85.14
2023-04-30T06:43:17.983Z,84.90
2023-04-30T06:44:18.009Z,84.80
2023-04-30T06:45:17.987Z,85.06
2023-04-30T06:46:18.000Z,84.45
2023-04-30T06:47:17.951Z,84.49
2023-04-30T06:48:17.933Z,84.49
2023-04-30T06:49:18.154Z,84.69
2023-04-30T06:50:17.911Z,84.69
2023-04-30T06:51:17.898Z,84.53
2023-04-30T06:52:17.884Z,84.18
2023-04-30T06:53:17.880Z,84.39
2023-04-30T06:54:17.911Z,84.08
2023-04-30T06:55:17.850Z,84.42
2023-04-30T06:56:17.859Z,83.23
2023-04-30T06:57:17.837Z,83.19
2023-04-30T06:58:17.834Z,83.70
2023-04-30T06:59:17.839Z,84.49
2023-04-30T07:00:17.801Z,84.34
2023-04-30T07:01:17.834Z,84.04
2023-04-30T07:02:18.911Z,84.45
2023-04-30T07:03:17.813Z,83.22
2023-04-30T07:04:17.762Z,82.70
2023-04-30T07:05:17.735Z,82.77
2023-04-30T07:06:17.749Z,81.81
2023-04-30T07:07:17.719Z,81.36
2023-04-30T07:08:17.719Z,81.67
2023-04-30T07:09:17.717Z,81.32
2023-04-30T07:10:17.688Z,80.91
2023-04-30T07:11:17.663Z,80.26
2023-04-30T07:12:17.650Z,79.34
2023-04-30T07:13:17.650Z,78.89
2023-04-30T07:14:17.670Z,78.38
2023-04-30T07:15:17.630Z,79.06
2023-04-30T07:16:17.652Z,77.80
2023-04-30T07:17:17.650Z,77.05
2023-04-30T07:18:17.604Z,77.22
2023-04-30T07:19:17.593Z,76.71
2023-04-30T07:20:17.576Z,76.81
2023-04-30T07:21:17.552Z,76.06
2023-04-30T07:22:17.548Z,75.65
2023-04-30T07:23:17.539Z,75.75
2023-04-30T07:24:17.542Z,76.16
2023-04-30T07:25:17.506Z,74.32
2023-04-30T07:26:17.505Z,74.93
2023-04-30T07:27:17.484Z,75.82
2023-04-30T07:28:17.485Z,75.71
2023-04-30T07:29:17.458Z,74.56
2023-04-30T07:30:17.471Z,73.57
2023-04-30T07:31:17.505Z,75.10
2023-04-30T07:32:17.431Z,73.57
2023-04-30T07:33:17.474Z,74.59
2023-04-30T07:34:17.411Z,73.94
2023-04-30T07:35:17.395Z,74.35
2023-04-30T07:36:17.387Z,75.65
2023-04-30T07:37:17.384Z,73.91
2023-04-30T07:38:17.376Z,74.25
2023-04-30T07:39:17.352Z,74.15
2023-04-30T07:40:25.387Z,74.39
2023-04-30T07:41:18.330Z,74.22
2023-04-30T07:42:17.311Z,75.68
2023-04-30T07:43:17.560Z,73.81
2023-04-30T07:44:17.293Z,73.77
2023-04-30T07:45:17.284Z,73.77
2023-04-30T07:46:17.345Z,72.82
2023-04-30T07:47:17.273Z,72.62
2023-04-30T07:48:17.254Z,72.99
2023-04-30T07:49:17.237Z,72.82
2023-04-30T07:50:17.235Z,73.06
2023-04-30T07:51:17.215Z,72.24
2023-04-30T07:52:17.216Z,72.92
2023-04-30T07:53:17.202Z,71.91
2023-04-30T07:54:17.180Z,70.54
2023-04-30T07:55:17.176Z,72.28
2023-04-30T07:56:17.156Z,72.24
2023-04-30T07:57:17.163Z,72.31
2023-04-30T07:58:17.171Z,70.28
2023-04-30T07:59:17.152Z,70.10
2023-04-30T08:00:17.114Z,70.07
2023-04-30T08:01:17.129Z,69.84
2023-04-30T08:02:17.224Z,69.39
2023-04-30T08:03:17.246Z,69.83
2023-04-30T08:04:17.116Z,71.29
2023-04-30T08:05:17.075Z,72.58
2023-04-30T08:06:17.086Z,73.23
2023-04-30T08:07:17.100Z,72.08
2023-04-30T08:08:17.084Z,70.38
2023-04-30T08:09:17.058Z,72.01
2023-04-30T08:10:17.008Z,69.80
2023-04-30T08:11:17.008Z,71.30
2023-04-30T08:12:16.988Z,70.78
2023-04-30T08:13:17.057Z,71.36
2023-04-30T08:14:17.020Z,69.49
2023-04-30T08:15:17.067Z,68.71
2023-04-30T08:16:17.047Z,69.12
2023-04-30T08:17:16.979Z,68.27
2023-04-30T08:18:17.093Z,68.62
2023-04-30T08:19:16.896Z,69.70
2023-04-30T08:20:16.957Z,68.65
2023-04-30T08:21:16.936Z,69.13
2023-04-30T08:22:16.909Z,67.71
2023-04-30T08:23:17.106Z,67.16
2023-04-30T08:24:16.956Z,66.15
2023-04-30T08:25:16.868Z,65.60
2023-04-30T08:26:16.938Z,66.78
2023-04-30T08:27:16.946Z,68.27
2023-04-30T08:28:16.893Z,68.18
2023-04-30T08:29:16.867Z,69.32
2023-04-30T08:30:16.842Z,67.93
2023-04-30T08:31:16.785Z,70.48
2023-04-30T08:32:16.831Z,68.92
2023-04-30T08:33:16.842Z,70.86
2023-04-30T08:34:16.748Z,68.79
2023-04-30T08:35:16.720Z,68.14
2023-04-30T08:36:16.718Z,67.77
2023-04-30T08:37:16.695Z,68.99
2023-04-30T08:38:16.703Z,68.99
2023-04-30T08:39:16.674Z,66.96
2023-04-30T08:40:16.662Z,65.80
2023-04-30T08:41:16.653Z,68.38
2023-04-30T08:42:16.636Z,67.22
2023-04-30T08:43:16.655Z,65.80
2023-04-30T08:44:16.617Z,66.05
2023-04-30T08:45:16.608Z,64.73
2023-04-30T08:46:16.678Z,66.99
2023-04-30T08:47:16.585Z,65.67
2023-04-30T08:48:16.766Z,66.46
2023-04-30T08:49:16.556Z,65.74
2023-04-30T08:50:16.566Z,64.90
2023-04-30T08:51:16.544Z,64.67
2023-04-30T08:52:16.527Z,63.48
2023-04-30T08:53:16.531Z,62.79
2023-04-30T08:54:16.505Z,64.76
2023-04-30T08:55:16.494Z,66.89
2023-04-30T08:56:16.488Z,66.86
2023-04-30T08:57:16.464Z,63.20
2023-04-30T08:58:16.469Z,63.81
2023-04-30T08:59:16.449Z,64.12
2023-04-30T09:00:16.451Z,63.91
2023-04-30T09:01:16.505Z,65.33
2023-04-30T09:02:16.542Z,63.78
2023-04-30T09:03:16.510Z,62.49
2023-04-30T09:04:16.385Z,64.73
2023-04-30T09:05:16.372Z,64.12
2023-04-30T09:06:16.415Z,64.49
2023-04-30T09:07:16.354Z,64.09
2023-04-30T09:08:16.360Z,63.30
2023-04-30T09:09:16.323Z,65.00
2023-04-30T09:10:16.322Z,63.17
2023-04-30T09:11:16.306Z,63.75
2023-04-30T09:12:18.631Z,63.21
2023-04-30T09:13:16.300Z,64.53
2023-04-30T09:14:16.271Z,62.10
2023-04-30T09:15:16.269Z,63.52
2023-04-30T09:16:16.290Z,63.11
2023-04-30T09:17:16.240Z,63.01
2023-04-30T09:18:16.385Z,62.91
2023-04-30T09:19:16.485Z,62.57
2023-04-30T09:20:16.203Z,61.83
2023-04-30T09:21:16.195Z,61.53
2023-04-30T09:22:16.204Z,60.31
2023-04-30T09:23:16.189Z,60.75
2023-04-30T09:24:17.281Z,60.14
2023-04-30T09:25:16.146Z,61.66
2023-04-30T09:26:16.145Z,60.93
2023-04-30T09:27:16.125Z,58.59
2023-04-30T09:28:16.259Z,60.75
2023-04-30T09:29:16.110Z,59.74
2023-04-30T09:30:16.090Z,60.17
2023-04-30T09:31:16.086Z,62.10
2023-04-30T09:32:16.162Z,60.47
2023-04-30T09:33:16.075Z,60.55
2023-04-30T09:34:16.064Z,60.44
2023-04-30T09:35:16.041Z,60.72
2023-04-30T09:36:16.028Z,59.30
2023-04-30T09:37:16.061Z,60.28
2023-04-30T09:38:16.034Z,60.66
2023-04-30T09:39:16.345Z,58.94
2023-04-30T09:40:16.058Z,57.96
2023-04-30T09:41:15.990Z,57.93
2023-04-30T09:42:15.957Z,58.44
2023-04-30T09:43:15.962Z,59.12
2023-04-30T09:44:15.950Z,59.84
2023-04-30T09:45:15.925Z,59.20
2023-04-30T09:46:15.934Z,59.81
2023-04-30T09:47:15.899Z,57.98
2023-04-30T09:48:17.632Z,59.41
2023-04-30T09:49:15.889Z,58.69
2023-04-30T09:50:15.906Z,59.30
2023-04-30T09:51:15.857Z,57.98
2023-04-30T09:52:15.866Z,58.27
2023-04-30T09:53:15.855Z,60.58
2023-04-30T09:54:15.857Z,60.93
2023-04-30T09:55:15.819Z,59.20
2023-04-30T09:56:15.809Z,58.09
2023-04-30T09:57:15.813Z,58.16
2023-04-30T09:58:16.351Z,58.03
2023-04-30T09:59:15.766Z,59.75
2023-04-30T10:00:15.803Z,57.53
2023-04-30T10:01:15.814Z,57.83
2023-04-30T10:02:15.742Z,57.93
2023-04-30T10:03:15.737Z,57.78
2023-04-30T10:04:15.755Z,59.95
2023-04-30T10:05:15.701Z,58.92
2023-04-30T10:06:15.768Z,58.20
2023-04-30T10:07:16.651Z,57.24
2023-04-30T10:08:15.687Z,57.86
2023-04-30T10:09:15.661Z,57.86
2023-04-30T10:10:15.685Z,57.15
2023-04-30T10:11:15.633Z,58.87
2023-04-30T10:12:15.630Z,57.37
2023-04-30T10:13:15.632Z,58.80
2023-04-30T10:14:15.635Z,59.53
2023-04-30T10:15:15.608Z,62.45
2023-04-30T10:16:15.583Z,59.17
2023-04-30T10:17:15.571Z,57.45
2023-04-30T10:18:15.573Z,58.13
2023-04-30T10:19:15.562Z,58.13
2023-04-30T10:20:15.545Z,59.01
2023-04-30T10:21:15.528Z,57.60
2023-04-30T10:22:15.514Z,57.90
2023-04-30T10:23:15.519Z,56.59
2023-04-30T10:24:15.486Z,58.31
2023-04-30T10:25:15.473Z,58.61
2023-04-30T10:26:15.477Z,58.11
2023-04-30T10:27:15.454Z,58.23
2023-04-30T10:28:15.458Z,57.83
2023-04-30T10:29:15.430Z,58.81
2023-04-30T10:30:15.440Z,58.18
2023-04-30T10:31:15.407Z,57.87
2023-04-30T10:32:15.438Z,56.21
2023-04-30T10:33:16.616Z,59.17
2023-04-30T10:34:15.379Z,59.45
2023-04-30T10:35:15.362Z,56.31
2023-04-30T10:36:15.354Z,56.61
2023-04-30T10:37:15.348Z,57.93
2023-04-30T10:38:15.351Z,58.54
2023-04-30T10:39:15.316Z,58.23
2023-04-30T10:40:15.319Z,57.22
2023-04-30T10:41:15.293Z,57.80
2023-04-30T10:42:15.300Z,56.48
2023-04-30T10:43:15.284Z,55.07
2023-04-30T10:44:15.273Z,57.29
2023-04-30T10:45:15.247Z,55.17
2023-04-30T10:46:15.298Z,55.90
2023-04-30T10:47:15.232Z,57.12
2023-04-30T10:48:15.328Z,56.48
2023-04-30T10:49:15.226Z,56.59
2023-04-30T10:50:15.197Z,56.08
2023-04-30T10:51:15.185Z,56.28
2023-04-30T10:52:15.174Z,56.46
2023-04-30T10:53:15.158Z,57.75
2023-04-30T10:54:15.170Z,55.75
2023-04-30T10:55:15.148Z,55.93
2023-04-30T10:56:15.122Z,55.49
2023-04-30T10:57:15.113Z,55.27
2023-04-30T10:58:15.126Z,53.96
2023-04-30T10:59:15.106Z,53.90
2023-04-30T11:00:15.112Z,53.50
2023-04-30T11:01:15.121Z,52.92
2023-04-30T11:02:15.071Z,54.00
2023-04-30T11:03:15.051Z,53.90
2023-04-30T11:04:15.119Z,53.80
2023-04-30T11:05:15.187Z,53.80
2023-04-30T11:06:15.191Z,53.38
2023-04-30T11:07:15.002Z,53.42
2023-04-30T11:08:15.002Z,51.20
2023-04-30T11:09:15.005Z,51.04
2023-04-30T11:10:14.978Z,53.58
2023-04-30T11:11:14.958Z,53.98
2023-04-30T11:12:14.967Z,54.76
2023-04-30T11:13:14.932Z,53.85
2023-04-30T11:14:14.965Z,54.16
2023-04-30T11:15:14.928Z,52.44
2023-04-30T11:16:14.999Z,52.84
2023-04-30T11:17:14.891Z,52.86
2023-04-30T11:18:14.878Z,53.88
2023-04-30T11:19:14.885Z,52.56
2023-04-30T11:20:14.879Z,52.36
2023-04-30T11:21:14.851Z,54.08
2023-04-30T11:22:14.873Z,52.54
2023-04-30T11:23:21.844Z,53.05
2023-04-30T11:24:15.835Z,52.13
2023-04-30T11:25:14.810Z,53.72
2023-04-30T11:26:14.792Z,54.11
2023-04-30T11:27:14.786Z,52.89
2023-04-30T11:28:14.764Z,52.28
2023-04-30T11:29:14.841Z,52.41
2023-04-30T11:30:14.783Z,53.50
2023-04-30T11:31:15.554Z,53.19
2023-04-30T11:32:14.739Z,53.40
2023-04-30T11:33:14.937Z,53.90
2023-04-30T11:34:14.716Z,52.48
2023-04-30T11:35:14.695Z,50.99
2023-04-30T11:36:14.690Z,52.64
2023-04-30T11:37:14.666Z,53.72
2023-04-30T11:38:14.674Z,52.51
2023-04-30T11:39:14.668Z,53.09
2023-04-30T11:40:14.638Z,53.42
2023-04-30T11:41:14.641Z,51.53
2023-04-30T11:42:14.613Z,52.54
2023-04-30T11:43:14.613Z,53.12
2023-04-30T11:44:14.606Z,52.79
2023-04-30T11:45:14.582Z,53.27
2023-04-30T11:46:14.633Z,53.67
2023-04-30T11:47:14.553Z,52.54
2023-04-30T11:48:14.675Z,52.03
2023-04-30T11:49:14.542Z,51.03
2023-04-30T11:50:14.529Z,49.58
2023-04-30T11:51:14.565Z,50.82
2023-04-30T11:52:14.524Z,50.70
2023-04-30T11:53:14.510Z,50.12
2023-04-30T11:54:14.487Z,52.23
2023-04-30T11:55:14.469Z,52.44
2023-04-30T11:56:14.490Z,51.53
2023-04-30T11:57:14.447Z,50.82
2023-04-30T11:58:14.500Z,51.73
2023-04-30T11:59:14.436Z,51.83
2023-04-30T12:00:14.420Z,51.76
2023-04-30T12:01:14.402Z,50.84
2023-04-30T12:02:14.476Z,52.03
2023-04-30T12:03:14.499Z,52.23
2023-04-30T12:04:14.505Z,50.72
2023-04-30T12:05:14.366Z,51.28
2023-04-30T12:06:14.403Z,52.51
2023-04-30T12:07:14.393Z,52.72
2023-04-30T12:08:14.335Z,51.48
2023-04-30T12:09:14.320Z,51.48
2023-04-30T12:10:14.329Z,53.63
2023-04-30T12:11:14.324Z,54.00
2023-04-30T12:12:14.275Z,53.22
2023-04-30T12:13:14.309Z,53.80
2023-04-30T12:14:14.262Z,52.59
2023-04-30T12:15:14.246Z,52.94
2023-04-30T12:16:14.266Z,54.96
2023-04-30T12:17:14.259Z,53.05
2023-04-30T12:18:14.378Z,52.14
2023-04-30T12:19:14.252Z,52.06
2023-04-30T12:20:14.195Z,53.17
2023-04-30T12:21:14.183Z,53.17
2023-04-30T12:22:14.161Z,53.09
2023-04-30T12:23:14.175Z,53.40
2023-04-30T12:24:14.147Z,52.28
2023-04-30T12:25:14.126Z,52.81
2023-04-30T12:26:14.116Z,53.65
2023-04-30T12:27:14.129Z,53.85
2023-04-30T12:28:14.115Z,54.46
2023-04-30T12:29:15.566Z,54.44
2023-04-30T12:30:14.069Z,53.22
2023-04-30T12:31:14.083Z,52.89
2023-04-30T12:32:14.084Z,53.78
2023-04-30T12:33:14.132Z,53.75
2023-04-30T12:34:14.051Z,52.34
2023-04-30T12:35:14.532Z,52.06
2023-04-30T12:36:14.011Z,53.19
2023-04-30T12:37:13.992Z,53.27
2023-04-30T12:38:14.007Z,51.86
2023-04-30T12:39:14.004Z,53.47
2023-04-30T12:40:13.986Z,51.07
2023-04-30T12:41:13.950Z,52.08
2023-04-30T12:42:13.971Z,53.78
2023-04-30T12:43:13.955Z,51.83
2023-04-30T12:44:13.919Z,51.93
2023-04-30T12:45:13.932Z,50.72
2023-04-30T12:46:13.931Z,51.73
2023-04-30T12:47:13.883Z,51.03
2023-04-30T12:48:13.913Z,52.23
2023-04-30T12:49:13.867Z,52.74
2023-04-30T12:50:13.914Z,50.92
2023-04-30T12:51:13.917Z,52.54
2023-04-30T12:52:13.825Z,52.14